Etusivu
METAR-TAF:

METAR-TAF

Lentoasemat :

Princeton, Brittiläinen Kolumbia, Kanada

Leveyspiiri: 49-28N, Pituuspiiri: 120-31W, korkeus merenpinnasta: 700 m

Tämänhetkinen sää

Tämä raportti tehtiin 1 tunti ja 7 minuuttia sitten, kello 14.00 UTC
tyyntä
Lämpötila 4°C
Kosteus 100%
Ilmanpaine 1025 hPa
Näkyvyys: 40.2 km
Muutamia pilviä 300 ft:n korkeudessa

METAR: CYDC 291400Z 00000KT 25SM FEW003 04/04 A3027 RMK ST1 SLP256

Aika: 08:07 (15:07 UTC)


TAF: puuttuu

Säähavainnot ja -ennusteet yli 4000 lentoasemalta (METAR- ja TAF-raportit).

Käytössä olevat sääasemat on merkitty karttaan keltaisilla ja punaisilla pisteillä.

Aseta hiiri pisteen päälle nähdäksesi sääaseman nimen.

Klikkaa sitten nähdäksesi säähavainnot ja -ennusteet.

Kartan vaihtaminen: klikkaa mustalla rastilla varustettuja vihreitä pisteitä, niin voit zoomata sisään; viivalla varustettua vihreää pistettä, niin voit zoomata ulos tai vihreitä nuolia, niin pääset viereisille kartoille.


METAR-TAF: